Big Glory — H9IF — position and weather

sailwx.info

Track history (hours):
 
Tides and Currents Weather Stations Pressure Air Temp Water Temp Dewpoint Dewpoint Depression Visibility Wind Speed Wind Dir Waves Ship Positions

Big Glory

Last reported at 2015-Mar-01 02:32 UTC. Time now 2015-Mar-05 18:48 UTC.
Position N 22°09' E 120°08'.

Length 190 m; draft 7 m.

Type: Cargo ship. MMSI: 354285000.

Date/timePositionNaut miles runAvg speedWind from/ knotsBaromVisibWave heightAir tempDewpointWater temp
2015-Mar-01 02:32N 22°09' E 120°08'1313.6
2015-Mar-01 01:33N 22°21' E 120°02'1312.9
2015-Mar-01 00:33N 22°33' E 119°58'1312.7
2015-Feb-28 23:34N 22°45' E 119°54'  
2015-Feb-24 13:33N 22°52' E 119°55'1211.7
2015-Feb-24 12:33N 22°41' E 119°57'1110.6
2015-Feb-24 11:33N 22°30' E 119°59'10 9.9
2015-Feb-24 10:33N 22°21' E 120°02'1010.0
2015-Feb-24 09:33N 22°11' E 120°06'1010.1
2015-Feb-24 08:33N 22°02' E 120°11'15 9.9
2015-Feb-24 07:04N 21°49' E 120°17'710.3
2015-Feb-24 06:21N 21°42' E 120°20'  
Track history (hours):
 
Tides and Currents Weather Stations Pressure Air Temp Water Temp Dewpoint Dewpoint Depression Visibility Wind Speed Wind Dir Waves Ship Positions

Big Glory

Last reported at 2015-Mar-01 02:32 UTC. Time now 2015-Mar-05 18:48 UTC.
Position N 22°09' E 120°08'.

Length 190 m; draft 7 m.

Type: Cargo ship. MMSI: 354285000.

Date/timePositionNaut miles runAvg speedWind from/ knotsBaromVisibWave heightAir tempDewpointWater temp
2015-Mar-01 02:32N 22°09' E 120°08'1313.6
2015-Mar-01 01:33N 22°21' E 120°02'1312.9
2015-Mar-01 00:33N 22°33' E 119°58'1312.7
2015-Feb-28 23:34N 22°45' E 119°54'  
2015-Feb-24 13:33N 22°52' E 119°55'1211.7
2015-Feb-24 12:33N 22°41' E 119°57'1110.6
2015-Feb-24 11:33N 22°30' E 119°59'10 9.9
2015-Feb-24 10:33N 22°21' E 120°02'1010.0
2015-Feb-24 09:33N 22°11' E 120°06'1010.1
2015-Feb-24 08:33N 22°02' E 120°11'15 9.9
2015-Feb-24 07:04N 21°49' E 120°17'710.3
2015-Feb-24 06:21N 21°42' E 120°20'  

Dump ship's entire track history